Time;durP1;ratioP1;P1;durP2;ratioP2;P2;SDS_P1;SDS_P2;PMS_P1;PMS_P2;Temp;Humidity;BMP_temperature;BMP_pressure;BME280_temperature;BME280_humidity;BME280_pressure;Samples;Min_cycle;Max_cycle;Signal;HPM_P1;HPM_P2
2023/03/26 00:00:57;;;;;;;0.60;0.60;;;;;;;7.58;62.39;93389.91;5006106;28;20029;-72
2023/03/26 00:03:23;;;;;;;1.25;0.60;;;;;;;7.63;62.62;93391.66;5005677;28;20455;-72
2023/03/26 00:05:48;;;;;;;0.50;0.50;;;;;;;7.57;62.35;93385.72;5005911;28;20266;-71
2023/03/26 00:08:15;;;;;;;0.70;0.70;;;;;;;7.71;62.33;93402.28;5006189;28;20196;-72
2023/03/26 00:10:42;;;;;;;0.60;0.60;;;;;;;7.71;62.44;93404.94;5003058;28;20125;-72
2023/03/26 00:13:08;;;;;;;0.60;0.60;;;;;;;7.80;62.23;93404.22;5014503;28;20689;-73
2023/03/26 00:15:35;;;;;;;0.65;0.60;;;;;;;7.67;62.29;93393.41;5008008;28;20553;-73
2023/03/26 00:18:01;;;;;;;0.70;0.70;;;;;;;7.79;61.75;93374.31;5005817;28;20037;-72
2023/03/26 00:20:29;;;;;;;1.10;0.60;;;;;;;7.94;61.58;93381.06;5006311;28;20072;-72
2023/03/26 00:22:55;;;;;;;0.60;0.60;;;;;;;8.11;60.98;93373.19;5002954;28;20041;-71
2023/03/26 00:25:22;;;;;;;1.02;0.63;;;;;;;8.19;60.11;93355.75;5006273;28;20034;-72
2023/03/26 00:27:48;;;;;;;0.50;0.50;;;;;;;8.45;59.41;93364.53;5005316;28;20126;-74
2023/03/26 00:30:15;;;;;;;0.82;0.70;;;;;;;8.83;58.33;93370.00;5004142;28;20033;-72
2023/03/26 00:32:41;;;;;;;0.88;0.63;;;;;;;8.87;57.48;93360.34;5007317;28;20500;-71
2023/03/26 00:35:07;;;;;;;0.88;0.60;;;;;;;8.94;56.99;93347.41;5006287;28;20151;-71
2023/03/26 00:37:32;;;;;;;0.65;0.65;;;;;;;9.10;56.81;93348.44;5004528;28;20065;-71
2023/03/26 00:40:01;;;;;;;1.80;0.60;;;;;;;9.27;56.09;93353.78;5003117;28;20090;-74
2023/03/26 00:42:27;;;;;;;0.65;0.60;;;;;;;9.43;56.02;93352.19;5014175;28;20088;-73
2023/03/26 00:44:56;;;;;;;1.55;0.60;;;;;;;9.44;55.28;93353.72;5003633;28;20229;-72
2023/03/26 00:47:27;;;;;;;0.98;0.63;;;;;;;9.68;54.86;93363.78;5006548;28;20040;-73
2023/03/26 00:49:54;;;;;;;0.82;0.82;;;;;;;9.79;54.70;93354.38;5005902;28;20517;-72
2023/03/26 00:52:20;;;;;;;1.00;0.70;;;;;;;9.96;53.76;93358.06;5008387;28;20050;-72
2023/03/26 00:54:47;;;;;;;0.60;0.60;;;;;;;10.12;53.01;93357.19;5010214;28;20038;-74
2023/03/26 00:57:13;;;;;;;2.20;0.70;;;;;;;10.22;52.78;93356.84;5011055;28;20025;-73
2023/03/26 00:59:40;;;;;;;0.75;0.70;;;;;;;10.32;52.08;93343.19;5009456;28;20567;-72
2023/03/26 01:02:10;;;;;;;2.78;0.80;;;;;;;10.41;51.99;93347.72;5011318;28;20029;-73
2023/03/26 01:04:36;;;;;;;1.00;0.88;;;;;;;10.41;51.74;93358.34;5010078;28;20034;-72
2023/03/26 01:07:15;;;;;;;1.67;0.80;;;;;;;10.42;51.72;93354.56;5006967;28;20056;-72
2023/03/26 01:09:44;;;;;;;1.50;0.70;;;;;;;9.96;52.10;93353.56;5010251;28;20045;-73
2023/03/26 01:12:14;;;;;;;0.63;0.63;;;;;;;9.80;52.47;93344.53;4997791;28;20034;-72
2023/03/26 01:14:40;;;;;;;2.05;0.60;;;;;;;9.47;53.04;93349.66;4990673;28;20045;-72
2023/03/26 01:17:07;;;;;;;0.60;0.60;;;;;;;9.26;54.16;93362.81;4992793;28;20049;-72
2023/03/26 01:19:43;;;;;;;0.65;0.60;;;;;;;9.30;54.27;93358.44;4989537;28;20034;-72
2023/03/26 01:22:11;;;;;;;0.85;0.60;;;;;;;9.34;54.11;93364.66;4988853;28;20440;-73
2023/03/26 01:24:38;;;;;;;2.33;0.65;;;;;;;9.17;54.38;93327.56;4986508;28;20031;-73
2023/03/26 01:27:30;;;;;;;0.60;0.60;;;;;;;9.44;54.29;93374.16;4989989;28;20433;-72
2023/03/26 01:30:17;;;;;;;0.50;0.50;;;;;;;9.24;55.00;93374.84;4990361;28;20029;-73
2023/03/26 01:33:02;;;;;;;1.00;0.65;;;;;;;8.98;55.75;93361.59;4992898;28;20496;-73
2023/03/26 01:35:45;;;;;;;0.70;0.70;;;;;;;9.19;55.80;93385.63;4989834;28;20073;-73
2023/03/26 01:38:35;;;;;;;0.80;0.60;;;;;;;9.24;55.59;93378.25;4998890;28;20526;-73
2023/03/26 01:41:30;;;;;;;0.70;0.70;;;;;;;9.44;55.26;93382.91;5010023;28;20042;-72
2023/03/26 01:43:59;;;;;;;1.15;0.63;;;;;;;9.53;54.79;93377.59;5022829;28;20041;-73
2023/03/26 01:46:26;;;;;;;0.80;0.75;;;;;;;9.55;54.88;93371.97;5006195;28;20125;-71
2023/03/26 01:48:51;;;;;;;0.70;0.70;;;;;;;9.60;55.00;93382.41;5007301;28;20116;-72
2023/03/26 01:51:29;;;;;;;0.75;0.75;;;;;;;9.72;54.44;93369.28;5011529;28;20569;-73
2023/03/26 01:53:57;;;;;;;0.70;0.70;;;;;;;9.87;54.18;93371.41;5008837;28;20030;-72
2023/03/26 01:56:38;;;;;;;1.05;0.82;;;;;;;10.01;53.92;93393.22;5010490;28;20179;-73
2023/03/26 01:59:22;;;;;;;0.82;0.70;;;;;;;10.11;53.73;93392.09;5007380;28;20124;-72
2023/03/26 02:02:12;;;;;;;1.10;0.90;;;;;;;10.11;53.43;93392.09;5015561;28;20029;-72
2023/03/26 02:04:45;;;;;;;1.30;1.20;;;;;;;10.03;53.73;93383.03;5009722;28;20103;-72
2023/03/26 02:07:36;;;;;;;1.27;1.00;;;;;;;9.99;53.54;93387.44;5009529;28;20071;-72
2023/03/26 02:10:20;;;;;;;1.05;1.00;;;;;;;10.05;53.44;93388.03;5008931;28;20037;-72
2023/03/26 02:12:45;;;;;;;1.30;1.05;;;;;;;9.84;53.43;93382.66;5009246;28;20022;-72
2023/03/26 02:15:11;;;;;;;1.38;0.90;;;;;;;9.61;53.82;93373.34;5009493;28;20048;-71
2023/03/26 02:17:40;;;;;;;1.02;0.93;;;;;;;9.65;53.82;93387.56;5004667;28;20597;-72
2023/03/26 02:20:09;;;;;;;1.20;1.10;;;;;;;9.65;53.58;93387.56;5011163;28;20045;-73
2023/03/26 02:22:44;;;;;;;1.60;1.38;;;;;;;9.66;53.50;93375.84;5004526;28;20620;-71
2023/03/26 02:25:10;;;;;;;;;;;;;;;9.73;53.27;93378.81;4988509;28;20030;-73
2023/03/26 02:27:38;;;;;;;1.15;1.13;;;;;;;9.76;52.91;93370.19;4988715;28;19913;-73
2023/03/26 02:30:07;;;;;;;1.10;1.00;;;;;;;9.71;52.73;93370.34;4986462;28;20521;-71
2023/03/26 02:32:33;;;;;;;1.50;1.10;;;;;;;9.66;53.17;93383.81;4984208;28;20042;-72
2023/03/26 02:34:59;;;;;;;1.65;1.55;;;;;;;9.52;53.57;93378.69;4984714;28;20046;-72
2023/03/26 02:37:24;;;;;;;1.30;1.20;;;;;;;9.47;52.97;93367.47;4982969;28;20043;-72
2023/03/26 02:39:50;;;;;;;1.42;1.13;;;;;;;9.12;53.20;93380.78;4983975;28;20124;-72
2023/03/26 02:42:15;;;;;;;2.13;1.17;;;;;;;8.82;54.28;93373.75;4985981;28;20215;-72
2023/03/26 02:44:41;;;;;;;1.55;1.25;;;;;;;8.67;54.89;93380.28;4984305;28;20077;-72
2023/03/26 02:47:06;;;;;;;2.00;1.45;;;;;;;8.63;55.83;93403.22;4987897;28;20125;-71
2023/03/26 02:49:32;;;;;;;1.50;1.30;;;;;;;8.62;56.46;93411.47;4988880;28;20044;-72
2023/03/26 02:51:58;;;;;;;1.20;1.10;;;;;;;8.80;56.29;93418.38;4995737;28;20022;-72
2023/03/26 02:54:24;;;;;;;1.95;1.85;;;;;;;8.78;56.54;93420.53;5010561;28;20025;-72
2023/03/26 02:56:49;;;;;;;1.65;1.23;;;;;;;8.87;55.98;93423.97;5008907;28;20847;-71
2023/03/26 02:59:15;;;;;;;1.50;1.23;;;;;;;8.74;56.22;93430.22;5006679;28;20040;-73
2023/03/26 03:01:41;;;;;;;1.40;1.27;;;;;;;8.71;56.26;93420.22;5001119;28;20150;-73
2023/03/26 03:04:09;;;;;;;1.70;1.25;;;;;;;8.82;56.19;93432.88;4992269;28;20531;-72
2023/03/26 03:06:34;;;;;;;1.13;1.10;;;;;;;8.62;56.85;93440.63;5008269;28;20025;-72
2023/03/26 03:09:01;;;;;;;1.00;1.00;;;;;;;8.05;58.23;93398.25;5007559;28;20409;-72
2023/03/26 03:11:27;;;;;;;1.40;1.30;;;;;;;8.05;58.97;93445.91;5007329;28;20125;-72
2023/03/26 03:13:53;;;;;;;1.00;1.00;;;;;;;7.87;59.78;93439.00;4999401;28;20060;-73
2023/03/26 03:16:19;;;;;;;1.38;1.10;;;;;;;7.77;59.81;93423.38;4992123;28;20090;-71
2023/03/26 03:18:46;;;;;;;1.52;1.42;;;;;;;7.65;60.54;93432.63;5004997;28;20037;-72
2023/03/26 03:21:11;;;;;;;2.38;1.85;;;;;;;7.79;60.60;93426.47;5006473;28;20461;-72
2023/03/26 03:23:37;;;;;;;1.58;1.40;;;;;;;7.79;61.05;93432.56;5005754;28;20037;-72
2023/03/26 03:26:02;;;;;;;1.42;1.30;;;;;;;7.87;60.41;93439.00;5002840;28;20039;-72
2023/03/26 03:28:28;;;;;;;1.58;1.48;;;;;;;7.67;60.83;93425.16;5006214;28;20128;-71
2023/03/26 03:30:56;;;;;;;5.50;1.92;;;;;;;7.79;60.76;93442.34;5005082;28;20101;-72
2023/03/26 03:33:22;;;;;;;2.88;1.80;;;;;;;7.84;60.19;93434.28;5004607;28;20044;-72
2023/03/26 03:35:48;;;;;;;2.53;2.03;;;;;;;7.71;60.52;93415.53;5007220;28;20693;-71
2023/03/26 03:38:18;;;;;;;4.32;1.92;;;;;;;7.70;60.70;93429.84;5009636;28;20030;-71
2023/03/26 03:40:43;;;;;;;2.55;2.28;;;;;;;7.67;60.73;93422.53;4997866;28;20057;-71
2023/03/26 03:43:09;;;;;;;2.28;2.08;;;;;;;7.51;61.44;93413.41;5004388;28;20340;-73
2023/03/26 03:45:35;;;;;;;2.65;2.33;;;;;;;7.23;62.67;93419.91;5005185;28;20479;-73
2023/03/26 03:48:00;;;;;;;2.65;2.10;;;;;;;7.10;63.10;93420.75;5004711;28;20386;-73
2023/03/26 03:50:25;;;;;;;3.00;2.65;;;;;;;6.78;63.76;93382.88;5002992;28;20100;-73
2023/03/26 03:52:51;;;;;;;3.20;2.90;;;;;;;6.19;63.54;93285.41;5006167;28;20064;-72
2023/03/26 03:55:17;;;;;;;3.55;2.72;;;;;;;7.04;63.35;93400.81;5005037;28;20041;-72
2023/03/26 03:57:42;;;;;;;3.15;2.67;;;;;;;6.83;63.95;93398.63;5006856;28;20017;-71
2023/03/26 04:00:10;;;;;;;2.92;2.63;;;;;;;6.85;64.06;93407.03;5007335;28;20408;-73
2023/03/26 04:02:36;;;;;;;3.67;3.38;;;;;;;6.92;63.88;93413.75;5006326;28;20456;-73
2023/03/26 04:05:02;;;;;;;3.08;2.67;;;;;;;6.86;63.70;93410.44;5006919;28;20037;-73
2023/03/26 04:07:32;;;;;;;3.15;2.85;;;;;;;6.95;63.30;93434.31;5007399;28;20061;-73
2023/03/26 04:10:04;;;;;;;2.97;2.78;;;;;;;6.76;63.46;93424.69;5007326;28;20524;-73
2023/03/26 04:12:30;;;;;;;3.42;2.90;;;;;;;6.67;64.07;93437.03;5008124;28;20036;-73
2023/03/26 04:14:57;;;;;;;3.35;3.05;;;;;;;6.60;64.01;93449.88;5004837;28;20037;-73
2023/03/26 04:17:22;;;;;;;2.65;2.45;;;;;;;6.58;64.42;93452.03;5006725;28;20436;-73
2023/03/26 04:19:49;;;;;;;3.38;3.00;;;;;;;6.77;64.44;93471.19;5006638;28;20106;-73
2023/03/26 04:22:17;;;;;;;3.25;2.95;;;;;;;6.66;64.57;93463.75;5005978;28;20038;-73
2023/03/26 04:24:43;;;;;;;2.92;2.72;;;;;;;6.63;64.80;93473.06;5013177;28;20030;-73
2023/03/26 04:27:14;;;;;;;3.47;3.17;;;;;;;6.77;64.58;93487.03;5005453;28;20373;-73
2023/03/26 04:29:43;;;;;;;3.58;3.03;;;;;;;6.96;63.56;93480.81;5005152;28;20072;-74
2023/03/26 04:32:20;;;;;;;3.35;3.05;;;;;;;7.07;63.48;93495.38;5014830;28;20411;-73
2023/03/26 04:34:46;;;;;;;2.60;2.40;;;;;;;7.00;63.69;93503.72;5007016;28;20072;-74
2023/03/26 04:37:21;;;;;;;2.90;2.70;;;;;;;7.01;63.74;93512.44;5005566;28;20061;-73
2023/03/26 04:39:46;;;;;;;3.47;3.17;;;;;;;6.90;64.08;93514.50;5007496;28;20034;-72
2023/03/26 04:42:13;;;;;;;5.32;4.80;;;;;;;6.91;64.00;93517.94;5005618;28;20025;-74
2023/03/26 04:44:41;;;;;;;5.18;4.72;;;;;;;6.76;64.80;93524.31;5003783;28;20077;-74
2023/03/26 04:47:06;;;;;;;6.38;4.82;;;;;;;6.79;64.59;93531.69;5006191;28;20115;-73
2023/03/26 04:49:32;;;;;;;4.00;3.60;;;;;;;6.70;64.62;93536.84;5008082;28;20499;-74
2023/03/26 04:51:57;;;;;;;4.10;3.70;;;;;;;6.70;64.14;93542.13;5002530;28;20040;-74
2023/03/26 04:54:23;;;;;;;5.30;4.80;;;;;;;6.83;63.84;93532.66;5007282;28;20026;-74
2023/03/26 04:56:56;;;;;;;4.63;4.22;;;;;;;6.99;62.98;93543.69;5004680;28;20065;-72
2023/03/26 04:59:28;;;;;;;4.80;4.28;;;;;;;6.80;62.50;93541.16;5005998;28;20029;-75
2023/03/26 05:01:55;;;;;;;6.53;5.00;;;;;;;6.89;62.25;93535.97;5009140;28;20030;-73
2023/03/26 05:04:21;;;;;;;5.30;4.63;;;;;;;6.98;60.52;93529.69;5003110;28;20046;-72
2023/03/26 05:06:46;;;;;;;6.10;5.03;;;;;;;7.01;59.85;93512.44;5012331;28;20100;-72
2023/03/26 05:09:13;;;;;;;6.15;5.40;;;;;;;7.18;58.90;93521.31;5004334;28;20049;-74
2023/03/26 05:11:38;;;;;;;7.05;5.18;;;;;;;7.17;58.88;93537.47;5005293;28;20096;-74
2023/03/26 05:14:04;;;;;;;6.10;5.50;;;;;;;7.29;57.42;93540.38;5013906;28;20042;-74
2023/03/26 05:16:30;;;;;;;7.13;6.43;;;;;;;7.33;57.49;93525.50;5008241;28;20854;-72
2023/03/26 05:18:56;;;;;;;5.18;4.68;;;;;;;7.40;56.81;93547.00;5004517;28;20033;-72
2023/03/26 05:21:21;;;;;;;5.60;5.00;;;;;;;7.38;56.49;93543.91;5005874;28;20026;-73
2023/03/26 05:23:47;;;;;;;7.15;5.57;;;;;;;7.58;56.44;93548.69;5005960;28;20034;-73
2023/03/26 05:26:12;;;;;;;5.60;5.10;;;;;;;7.78;55.60;93538.78;5002986;28;20045;-74
2023/03/26 05:28:38;;;;;;;8.40;5.85;;;;;;;8.03;55.03;93544.19;5005493;28;20215;-73
2023/03/26 05:31:04;;;;;;;8.20;5.95;;;;;;;8.05;54.25;93509.47;5005809;28;20076;-73
2023/03/26 05:33:29;;;;;;;5.30;4.28;;;;;;;8.41;53.59;93552.50;5004820;28;20041;-74
2023/03/26 05:36:08;;;;;;;5.78;4.93;;;;;;;8.15;53.62;93535.72;5005471;28;20412;-73
2023/03/26 05:38:34;;;;;;;5.28;4.40;;;;;;;7.91;54.69;93540.56;5014965;28;20481;-73
2023/03/26 05:41:02;;;;;;;6.63;4.72;;;;;;;8.04;55.29;93556.38;5010484;28;20632;-74
2023/03/26 05:43:28;;;;;;;5.88;5.28;;;;;;;8.20;54.78;93551.47;5008548;28;20030;-73
2023/03/26 05:45:54;;;;;;;6.18;5.57;;;;;;;8.23;54.65;93553.50;5009203;28;20040;-74
2023/03/26 05:48:20;;;;;;;5.75;5.13;;;;;;;8.44;54.48;93559.06;5007526;28;20042;-72
2023/03/26 05:50:50;;;;;;;6.18;5.57;;;;;;;8.57;53.92;93553.66;5009536;28;20042;-73
2023/03/26 05:53:17;;;;;;;7.03;5.95;;;;;;;8.56;53.96;93552.09;5008970;28;20034;-74
2023/03/26 05:55:44;;;;;;;6.68;5.97;;;;;;;8.59;53.59;93532.94;5007601;28;20053;-73
2023/03/26 05:58:11;;;;;;;10.00;5.75;;;;;;;8.75;53.96;93551.88;5016132;28;20071;-73
2023/03/26 06:00:37;;;;;;;6.10;5.32;;;;;;;8.71;52.56;93558.84;5009485;28;20247;-74
2023/03/26 06:03:04;;;;;;;8.13;5.38;;;;;;;8.78;52.48;93548.59;5006977;28;20492;-73
2023/03/26 06:05:36;;;;;;;5.28;4.70;;;;;;;8.75;52.44;93548.44;5025358;28;20115;-74
2023/03/26 06:08:02;;;;;;;6.55;5.60;;;;;;;8.68;51.96;93543.56;5008048;28;20037;-74
2023/03/26 06:10:28;;;;;;;5.70;5.05;;;;;;;8.71;52.68;93552.78;5008013;28;20041;-74
2023/03/26 06:12:53;;;;;;;8.98;6.45;;;;;;;8.72;51.90;93562.28;5008327;28;20250;-72
2023/03/26 06:15:18;;;;;;;6.38;5.78;;;;;;;8.61;52.10;93524.66;5008031;28;20152;-72
2023/03/26 06:17:44;;;;;;;6.60;5.90;;;;;;;8.66;52.33;93529.06;5010344;28;20037;-72
2023/03/26 06:20:11;;;;;;;8.32;6.43;;;;;;;8.73;52.18;93538.13;5008745;28;20057;-73
2023/03/26 06:22:36;;;;;;;6.95;6.28;;;;;;;8.84;52.04;93517.41;5007433;28;20318;-72
2023/03/26 06:25:02;;;;;;;11.25;6.20;;;;;;;9.05;51.61;93542.25;5005065;28;20028;-72
2023/03/26 06:27:27;;;;;;;6.90;6.20;;;;;;;8.99;51.27;93543.50;5010704;28;20480;-72
2023/03/26 06:29:53;;;;;;;6.10;5.22;;;;;;;9.06;50.67;93543.81;5004991;28;20954;-73
2023/03/26 06:32:19;;;;;;;7.57;6.78;;;;;;;9.27;51.11;93536.88;5016530;28;20095;-72
2023/03/26 06:34:44;;;;;;;7.65;6.18;;;;;;;9.48;50.54;93534.38;5006303;28;20041;-72
2023/03/26 06:37:10;;;;;;;7.45;5.57;;;;;;;9.37;49.97;93517.97;5006054;28;20039;-73
2023/03/26 06:39:35;;;;;;;9.70;6.40;;;;;;;9.48;50.29;93510.50;5008119;28;20457;-72
2023/03/26 06:42:00;;;;;;;6.55;5.82;;;;;;;9.66;49.37;93529.84;5005655;28;20033;-72
2023/03/26 06:44:26;;;;;;;9.48;6.60;;;;;;;9.44;50.00;93534.22;5003874;28;20041;-73
2023/03/26 06:46:51;;;;;;;8.45;7.10;;;;;;;9.59;50.26;93537.47;5003700;28;20503;-73
2023/03/26 06:49:17;;;;;;;8.23;6.43;;;;;;;9.66;49.56;93532.50;5005194;28;20087;-73
2023/03/26 06:51:42;;;;;;;6.35;5.75;;;;;;;9.60;49.09;93537.19;5005608;28;20052;-73
2023/03/26 06:54:07;;;;;;;6.88;5.53;;;;;;;9.54;49.11;93542.94;5006393;28;20042;-72
2023/03/26 06:56:33;;;;;;;6.53;5.50;;;;;;;9.42;48.96;93536.41;5007021;28;20048;-72
2023/03/26 06:58:59;;;;;;;7.38;6.57;;;;;;;9.52;49.01;93551.25;5005963;28;20081;-73
2023/03/26 07:01:24;;;;;;;8.52;6.28;;;;;;;9.40;49.50;93546.53;5008713;28;20513;-72
2023/03/26 07:03:50;;;;;;;8.02;5.80;;;;;;;9.54;49.85;93558.88;5006333;28;20021;-73
2023/03/26 07:06:15;;;;;;;6.35;5.72;;;;;;;9.72;48.76;93557.81;5006675;28;20042;-72
2023/03/26 07:08:41;;;;;;;6.93;6.22;;;;;;;9.69;48.55;93567.16;5006832;28;20126;-72
2023/03/26 07:11:07;;;;;;;5.32;4.82;;;;;;;9.65;46.99;93560.91;5007047;28;20141;-72
2023/03/26 07:13:32;;;;;;;6.13;5.53;;;;;;;9.57;47.82;93566.25;5006627;28;20042;-72
2023/03/26 07:15:57;;;;;;;9.02;6.57;;;;;;;9.67;47.89;93556.09;5006143;28;20492;-74
2023/03/26 07:18:23;;;;;;;7.07;5.53;;;;;;;9.60;47.51;93557.63;5006214;28;20109;-73
2023/03/26 07:20:49;;;;;;;7.40;6.05;;;;;;;9.64;48.45;93542.63;5006160;28;20060;-72
2023/03/26 07:23:18;;;;;;;7.75;6.13;;;;;;;9.99;48.02;93557.47;5008541;28;20044;-72
2023/03/26 07:25:45;;;;;;;6.65;6.03;;;;;;;10.05;47.94;93558.84;5003580;28;20048;-73
2023/03/26 07:28:23;;;;;;;6.15;5.55;;;;;;;10.23;47.72;93560.38;5007260;28;20492;-72
2023/03/26 07:31:00;;;;;;;5.82;5.15;;;;;;;10.23;46.68;93552.41;5014324;28;20443;-72
2023/03/26 07:33:38;;;;;;;9.32;5.38;;;;;;;9.99;47.04;93543.38;5006363;28;20316;-73
2023/03/26 07:36:11;;;;;;;6.25;5.28;;;;;;;9.95;47.00;93545.91;5008041;28;20064;-73
2023/03/26 07:39:07;;;;;;;7.65;6.00;;;;;;;10.24;47.17;93540.69;5006809;28;20043;-73
2023/03/26 07:41:53;;;;;;;;;;;;;;;10.33;46.68;93538.00;5002448;28;20037;-74
2023/03/26 07:44:21;;;;;;;9.10;6.60;;;;;;;10.21;46.65;93541.31;5005374;28;19995;-73
2023/03/26 07:46:48;;;;;;;6.18;4.93;;;;;;;10.35;45.58;93529.72;5003507;28;20872;-73
2023/03/26 07:49:13;;;;;;;4.60;3.28;;;;;;;10.13;42.76;93526.16;5007814;28;20204;-73
2023/03/26 07:51:40;;;;;;;7.90;4.72;;;;;;;10.10;43.68;93534.00;5005890;28;20045;-72
2023/03/26 07:54:07;;;;;;;3.75;2.95;;;;;;;10.05;42.48;93536.81;5008255;28;20046;-72
2023/03/26 07:56:55;;;;;;;4.28;3.83;;;;;;;10.32;41.15;93539.09;5003579;28;20249;-72
2023/03/26 07:59:30;;;;;;;4.60;2.33;;;;;;;10.30;40.69;93534.09;5004264;28;20047;-72
2023/03/26 08:02:28;;;;;;;6.22;3.90;;;;;;;10.41;41.79;93533.78;5004173;28;20132;-73
2023/03/26 08:05:09;;;;;;;3.08;2.35;;;;;;;10.30;41.20;93523.47;5003874;28;20034;-73
2023/03/26 08:07:55;;;;;;;4.88;2.90;;;;;;;10.26;40.73;93519.13;5001928;28;20045;-72
2023/03/26 08:10:57;;;;;;;7.55;3.22;;;;;;;10.29;41.40;93529.88;5011036;28;20040;-74
2023/03/26 08:13:29;;;;;;;3.40;3.10;;;;;;;10.37;41.53;93524.91;5005467;28;20145;-74
2023/03/26 08:16:26;;;;;;;3.38;2.58;;;;;;;10.27;40.82;93537.38;5007134;28;20458;-74
2023/03/26 08:19:11;;;;;;;5.15;3.53;;;;;;;10.22;41.18;93537.56;5005799;28;20034;-72
2023/03/26 08:21:47;;;;;;;6.00;3.45;;;;;;;10.16;41.26;93520.25;5004926;28;20692;-73
2023/03/26 08:24:35;;;;;;;6.88;3.38;;;;;;;10.42;42.93;93530.00;5004775;28;20041;-72
2023/03/26 08:27:31;;;;;;;5.95;3.65;;;;;;;10.53;42.07;93525.91;5006627;28;20037;-72
2023/03/26 08:30:09;;;;;;;6.78;4.03;;;;;;;9.95;42.77;93425.56;5006191;28;20524;-73
2023/03/26 08:32:35;;;;;;;4.20;3.08;;;;;;;10.60;41.18;93527.00;5004452;28;20625;-73
2023/03/26 08:35:02;;;;;;;6.22;3.42;;;;;;;10.63;41.89;93531.66;5005565;28;20026;-73
2023/03/26 08:37:28;;;;;;;5.88;4.65;;;;;;;10.42;42.71;93543.31;5006323;28;20049;-73
2023/03/26 08:39:53;;;;;;;6.70;5.03;;;;;;;10.57;41.38;93527.63;5005094;28;20025;-73
2023/03/26 08:42:50;;;;;;;3.83;3.47;;;;;;;10.87;39.23;93541.72;5004761;28;20286;-72
2023/03/26 08:45:50;;;;;;;7.47;6.38;;;;;;;10.82;41.23;93538.47;5003704;28;20041;-73
2023/03/26 08:48:37;;;;;;;3.38;2.95;;;;;;;10.86;40.41;93539.38;5000559;28;20143;-72
2023/03/26 08:51:21;;;;;;;3.70;3.40;;;;;;;10.60;41.86;93542.16;5002146;28;20071;-74
2023/03/26 08:54:13;;;;;;;7.15;3.22;;;;;;;10.58;41.74;93539.81;5005873;28;20050;-72
2023/03/26 08:57:10;;;;;;;5.55;2.90;;;;;;;10.74;40.67;93537.41;5013127;28;20069;-72
2023/03/26 08:59:38;;;;;;;22.83;14.20;;;;;;;10.73;41.41;93543.81;5002274;28;20064;-73
2023/03/26 09:02:12;;;;;;;12.98;8.05;;;;;;;10.62;41.91;93532.75;5005739;28;20034;-74
2023/03/26 09:05:09;;;;;;;5.38;3.25;;;;;;;10.78;42.02;93548.97;5004268;28;20053;-74
2023/03/26 09:07:59;;;;;;;11.75;9.90;;;;;;;10.82;41.54;93541.13;5004738;28;20275;-73
2023/03/26 09:10:31;;;;;;;8.15;6.45;;;;;;;10.59;42.02;93514.78;5004536;28;20041;-73
2023/03/26 09:13:40;;;;;;;4.78;3.00;;;;;;;10.79;41.52;93545.22;5008849;28;20048;-72
2023/03/26 09:16:06;;;;;;;2.85;2.53;;;;;;;10.69;41.39;93529.63;5017588;28;20036;-72
2023/03/26 09:19:23;;;;;;;3.75;2.50;;;;;;;10.73;40.14;93539.28;4999747;28;20605;-73
2023/03/26 09:21:51;;;;;;;4.10;2.75;;;;;;;10.89;40.51;93528.88;5011070;28;20042;-72
2023/03/26 09:24:26;;;;;;;2.50;2.30;;;;;;;10.79;39.44;93529.25;5011388;28;20166;-73
2023/03/26 09:27:07;;;;;;;2.95;2.15;;;;;;;10.65;38.84;93523.38;5008841;28;20034;-74
2023/03/26 09:29:47;;;;;;;2.33;1.83;;;;;;;10.60;38.16;93515.56;5014825;28;20041;-72
2023/03/26 09:32:29;;;;;;;4.60;2.40;;;;;;;10.57;38.34;93510.88;5005449;28;20077;-73
2023/03/26 09:35:04;;;;;;;7.30;1.88;;;;;;;10.90;39.28;93524.34;5007664;28;20661;-74
2023/03/26 09:37:50;;;;;;;1.50;1.38;;;;;;;11.01;37.78;93531.63;5009653;28;20507;-73
2023/03/26 09:40:17;;;;;;;3.03;1.88;;;;;;;11.21;38.10;93524.00;5010602;28;20088;-73
2023/03/26 09:42:57;;;;;;;3.30;1.45;;;;;;;11.14;38.73;93519.97;5006770;28;20380;-72
2023/03/26 09:45:28;;;;;;;3.05;1.70;;;;;;;11.24;37.67;93526.03;5006186;28;20498;-74
2023/03/26 09:47:53;;;;;;;1.40;1.30;;;;;;;11.16;37.50;93522.31;5009158;28;20897;-73
2023/03/26 09:50:41;;;;;;;2.72;1.48;;;;;;;11.18;37.74;93526.22;5003853;28;20034;-73
2023/03/26 09:53:45;;;;;;;2.78;1.98;;;;;;;11.25;38.42;93519.59;5002719;28;20077;-72
2023/03/26 09:56:41;;;;;;;7.72;1.58;;;;;;;11.10;38.07;93513.72;5002977;28;20126;-73
2023/03/26 09:59:37;;;;;;;1.50;1.40;;;;;;;11.33;37.75;93521.41;5003110;28;20042;-72
2023/03/26 10:02:26;;;;;;;2.05;1.33;;;;;;;11.33;37.21;93500.13;5004273;28;20083;-73
2023/03/26 10:05:00;;;;;;;2.35;1.98;;;;;;;11.47;37.04;93511.28;5006374;28;20076;-73
2023/03/26 10:07:45;;;;;;;3.83;2.30;;;;;;;11.57;37.43;93505.59;5001789;28;20038;-73
2023/03/26 10:10:23;;;;;;;2.15;1.52;;;;;;;11.46;36.12;93491.09;5000429;28;20385;-71
2023/03/26 10:12:59;;;;;;;2.25;1.25;;;;;;;11.27;36.29;93485.44;5005528;28;20037;-72
2023/03/26 10:15:31;;;;;;;2.63;1.10;;;;;;;11.30;36.10;93490.09;5005137;28;20572;-71
2023/03/26 10:18:22;;;;;;;2.95;1.30;;;;;;;11.47;36.87;93479.34;4998936;28;20080;-72
2023/03/26 10:21:09;;;;;;;1.20;1.10;;;;;;;11.62;34.14;93470.78;4995344;28;20054;-73
2023/03/26 10:24:02;;;;;;;1.02;0.98;;;;;;;11.59;33.50;93468.75;4982643;28;20042;-74
2023/03/26 10:26:56;;;;;;;1.20;0.80;;;;;;;11.71;34.87;93463.47;4982368;28;20128;-72
2023/03/26 10:29:40;;;;;;;1.10;1.00;;;;;;;11.94;35.20;93461.97;4985259;28;20042;-72
2023/03/26 10:32:44;;;;;;;1.35;1.00;;;;;;;12.02;32.54;93450.47;4984928;28;20326;-72
2023/03/26 10:35:33;;;;;;;1.73;0.90;;;;;;;11.88;32.50;93441.22;4985600;28;20038;-72
2023/03/26 10:38:17;;;;;;;1.40;0.85;;;;;;;11.90;33.11;93453.09;4986132;28;20444;-73
2023/03/26 10:41:11;;;;;;;4.60;3.58;;;;;;;11.86;31.03;93424.78;4985564;28;20048;-73
2023/03/26 10:44:07;;;;;;;1.20;0.75;;;;;;;12.06;32.65;93452.47;4985904;28;20114;-74
2023/03/26 10:47:21;;;;;;;0.82;0.68;;;;;;;11.99;30.98;93448.44;4995263;28;20658;-74
2023/03/26 10:50:09;;;;;;;2.03;0.80;;;;;;;11.82;30.86;93443.31;4970512;28;20125;-73
2023/03/26 10:52:48;;;;;;;0.50;0.50;;;;;;;11.83;30.93;93418.22;4986743;28;20049;-73
2023/03/26 10:55:17;;;;;;;0.65;0.63;;;;;;;11.81;30.20;93417.78;5015223;28;20025;-72
2023/03/26 10:57:55;;;;;;;5.20;0.95;;;;;;;12.01;30.96;93422.25;5007129;28;20120;-72
2023/03/26 11:00:25;;;;;;;1.08;0.77;;;;;;;12.12;30.96;93429.81;5008396;28;20068;-73
2023/03/26 11:03:21;;;;;;;1.02;0.75;;;;;;;11.89;30.89;93416.13;5006980;28;20046;-74
2023/03/26 11:06:01;;;;;;;0.57;0.57;;;;;;;12.05;30.28;93425.03;5006276;28;20351;-72
2023/03/26 11:08:52;;;;;;;0.90;0.60;;;;;;;12.07;29.24;93408.72;5023271;28;20051;-74
2023/03/26 11:11:21;;;;;;;0.52;0.52;;;;;;;12.36;28.96;93424.53;5001824;28;20057;-73
2023/03/26 11:14:03;;;;;;;0.90;0.70;;;;;;;12.27;29.34;93415.84;5005079;28;20077;-73
2023/03/26 11:16:50;;;;;;;0.57;0.57;;;;;;;12.28;29.76;93418.16;5010934;28;20770;-73
2023/03/26 11:19:19;;;;;;;1.80;0.88;;;;;;;12.15;28.88;93397.94;5005223;28;20049;-72
2023/03/26 11:22:14;;;;;;;0.60;0.60;;;;;;;12.26;30.01;93376.97;5002745;28;20067;-73
2023/03/26 11:24:45;;;;;;;0.80;0.75;;;;;;;12.49;29.61;93402.06;5006495;28;20049;-72
2023/03/26 11:27:41;;;;;;;1.35;1.00;;;;;;;12.53;29.83;93391.50;5007816;28;20041;-73
2023/03/26 11:30:27;;;;;;;0.88;0.88;;;;;;;12.50;28.88;93387.63;5007178;28;20049;-73
2023/03/26 11:33:01;;;;;;;1.33;0.90;;;;;;;12.31;28.57;93358.84;5007642;28;20073;-73
2023/03/26 11:35:34;;;;;;;1.90;0.70;;;;;;;12.39;29.53;93359.84;5007206;28;20042;-73
2023/03/26 11:38:06;;;;;;;5.13;1.60;;;;;;;12.62;30.20;93389.50;5006595;28;20080;-72
2023/03/26 11:40:40;;;;;;;1.85;0.80;;;;;;;12.72;30.93;93373.81;5007900;28;20048;-74
2023/03/26 11:43:12;;;;;;;2.95;0.60;;;;;;;13.04;29.66;93379.31;5007344;28;20041;-73
2023/03/26 11:45:42;;;;;;;1.02;0.90;;;;;;;13.37;29.63;93366.50;5008588;28;20029;-72
2023/03/26 11:48:16;;;;;;;1.00;0.80;;;;;;;13.30;29.75;93360.97;5011619;28;20457;-74
2023/03/26 11:50:46;;;;;;;1.05;0.93;;;;;;;13.42;29.34;93363.59;5006583;28;20119;-72
2023/03/26 11:53:16;;;;;;;2.00;0.80;;;;;;;13.42;29.58;93349.47;5005583;28;20041;-74
2023/03/26 11:56:00;;;;;;;0.80;0.70;;;;;;;13.59;29.43;93336.59;5005981;28;20033;-73
2023/03/26 11:58:45;;;;;;;1.27;1.13;;;;;;;13.57;29.89;93325.47;5006926;28;20033;-72
2023/03/26 12:01:16;;;;;;;3.75;0.90;;;;;;;13.25;29.29;93310.50;5006704;28;20041;-74
2023/03/26 12:03:41;;;;;;;2.05;0.70;;;;;;;13.51;30.13;93310.78;5003982;28;20169;-73
2023/03/26 12:06:24;;;;;;;1.73;1.00;;;;;;;13.58;30.20;93316.31;5007750;28;20033;-72